sensor_id;sensor_type;location;lat;lon;timestamp;noise_LAeq;noise_LA_min;noise_LA_max;noise_LA01;noise_LA95
43385;Laerm;28988;48.042;7.584;2023-08-08T00:01:32;87.07;-29.65;99.78;;
43385;Laerm;28988;48.042;7.584;2023-08-08T00:03:57;87.11;-47.13;98.34;;
43385;Laerm;28988;48.042;7.584;2023-08-08T00:06:22;87.22;-31.81;98.49;;
43385;Laerm;28988;48.042;7.584;2023-08-08T00:08:47;87.33;-44.78;99.15;;
43385;Laerm;28988;48.042;7.584;2023-08-08T00:11:12;87.56;-36.67;100.24;;
43385;Laerm;28988;48.042;7.584;2023-08-08T00:13:38;87.83;-30.23;99.76;;
43385;Laerm;28988;48.042;7.584;2023-08-08T00:16:03;88.17;-45.30;99.41;;
43385;Laerm;28988;48.042;7.584;2023-08-08T00:18:28;88.37;-38.81;99.62;;
43385;Laerm;28988;48.042;7.584;2023-08-08T00:20:53;88.55;-49.57;99.22;;
43385;Laerm;28988;48.042;7.584;2023-08-08T00:23:18;89.14;-43.17;103.11;;
43385;Laerm;28988;48.042;7.584;2023-08-08T00:25:44;89.51;-21.72;101.20;;
43385;Laerm;28988;48.042;7.584;2023-08-08T00:28:09;89.91;-28.58;102.00;;
43385;Laerm;28988;48.042;7.584;2023-08-08T00:30:34;90.01;-29.20;101.72;;
43385;Laerm;28988;48.042;7.584;2023-08-08T00:32:59;90.28;-16.51;103.74;;
43385;Laerm;28988;48.042;7.584;2023-08-08T00:35:24;90.59;-36.05;102.22;;
43385;Laerm;28988;48.042;7.584;2023-08-08T00:37:49;90.89;-37.04;102.15;;
43385;Laerm;28988;48.042;7.584;2023-08-08T00:40:15;91.17;-22.80;102.00;;
43385;Laerm;28988;48.042;7.584;2023-08-08T00:42:40;91.49;-54.81;103.76;;
43385;Laerm;28988;48.042;7.584;2023-08-08T00:45:05;92.02;-27.28;103.15;;
43385;Laerm;28988;48.042;7.584;2023-08-08T00:47:31;92.47;-43.81;102.98;;
43385;Laerm;28988;48.042;7.584;2023-08-08T00:49:57;92.65;-22.35;102.74;;
43385;Laerm;28988;48.042;7.584;2023-08-08T00:52:23;92.92;-30.30;103.03;;
43385;Laerm;28988;48.042;7.584;2023-08-08T00:54:48;93.36;-32.51;104.69;;
43385;Laerm;28988;48.042;7.584;2023-08-08T00:57:13;93.58;-26.82;103.09;;
43385;Laerm;28988;48.042;7.584;2023-08-08T00:59:38;93.73;-38.67;103.12;;
43385;Laerm;28988;48.042;7.584;2023-08-08T01:02:04;93.89;-29.14;103.29;;
43385;Laerm;28988;48.042;7.584;2023-08-08T01:04:29;94.31;-50.03;104.95;;
43385;Laerm;28988;48.042;7.584;2023-08-08T01:07:10;94.84;-22.49;105.16;;
43385;Laerm;28988;48.042;7.584;2023-08-08T01:09:39;94.78;-26.45;104.22;;
43385;Laerm;28988;48.042;7.584;2023-08-08T01:12:05;94.86;-28.16;103.55;;
43385;Laerm;28988;48.042;7.584;2023-08-08T01:14:33;95.16;-45.47;104.64;;
43385;Laerm;28988;48.042;7.584;2023-08-08T01:16:59;95.77;-26.78;104.05;;
43385;Laerm;28988;48.042;7.584;2023-08-08T01:19:27;96.56;-34.59;104.10;;
43385;Laerm;28988;48.042;7.584;2023-08-08T01:21:53;96.93;-29.15;104.37;;
43385;Laerm;28988;48.042;7.584;2023-08-08T01:24:19;97.64;-30.86;104.77;;
43385;Laerm;28988;48.042;7.584;2023-08-08T01:26:45;98.08;-35.00;105.50;;
43385;Laerm;28988;48.042;7.584;2023-08-08T01:29:10;98.67;-19.12;105.04;;
43385;Laerm;28988;48.042;7.584;2023-08-08T01:31:36;99.12;-24.00;105.10;;
43385;Laerm;28988;48.042;7.584;2023-08-08T01:34:01;99.45;-52.06;105.19;;
43385;Laerm;28988;48.042;7.584;2023-08-08T01:36:35;99.69;-38.74;105.79;;
43385;Laerm;28988;48.042;7.584;2023-08-08T01:39:03;99.87;-30.65;105.48;;
43385;Laerm;28988;48.042;7.584;2023-08-08T01:41:33;100.17;-32.33;105.33;;
43385;Laerm;28988;48.042;7.584;2023-08-08T01:43:59;100.37;-33.96;105.35;;
43385;Laerm;28988;48.042;7.584;2023-08-08T01:46:25;100.54;-28.22;105.44;;
43385;Laerm;28988;48.042;7.584;2023-08-08T01:48:51;100.57;-37.15;105.51;;
43385;Laerm;28988;48.042;7.584;2023-08-08T01:51:16;100.60;-21.55;105.46;;
43385;Laerm;28988;48.042;7.584;2023-08-08T01:53:41;100.57;-30.86;105.47;;
43385;Laerm;28988;48.042;7.584;2023-08-08T01:56:07;100.57;-18.42;105.59;;
43385;Laerm;28988;48.042;7.584;2023-08-08T01:58:32;100.63;-18.62;105.57;;
43385;Laerm;28988;48.042;7.584;2023-08-08T02:00:57;100.64;-17.48;105.39;;
43385;Laerm;28988;48.042;7.584;2023-08-08T02:03:23;100.58;-22.98;105.50;;
43385;Laerm;28988;48.042;7.584;2023-08-08T02:05:48;100.60;-28.60;105.78;;
43385;Laerm;28988;48.042;7.584;2023-08-08T02:08:13;100.84;-47.99;105.44;;
43385;Laerm;28988;48.042;7.584;2023-08-08T02:10:38;100.93;-33.86;105.32;;
43385;Laerm;28988;48.042;7.584;2023-08-08T02:13:04;101.00;-12.61;105.27;;
43385;Laerm;28988;48.042;7.584;2023-08-08T02:15:29;101.03;-21.98;105.18;;
43385;Laerm;28988;48.042;7.584;2023-08-08T02:17:54;101.02;-23.52;104.95;;
43385;Laerm;28988;48.042;7.584;2023-08-08T02:20:19;101.02;-14.41;104.88;;
43385;Laerm;28988;48.042;7.584;2023-08-08T02:22:45;100.99;-15.20;105.04;;
43385;Laerm;28988;48.042;7.584;2023-08-08T02:25:10;100.98;-23.48;104.98;;
43385;Laerm;28988;48.042;7.584;2023-08-08T02:27:35;100.72;-28.10;104.71;;
43385;Laerm;28988;48.042;7.584;2023-08-08T02:30:00;100.07;-18.15;104.64;;
43385;Laerm;28988;48.042;7.584;2023-08-08T02:32:25;99.49;-12.54;104.36;;
43385;Laerm;28988;48.042;7.584;2023-08-08T02:34:51;99.19;-42.22;104.07;;
43385;Laerm;28988;48.042;7.584;2023-08-08T02:37:16;99.00;-36.66;104.51;;
43385;Laerm;28988;48.042;7.584;2023-08-08T02:39:44;98.59;-23.69;103.80;;
43385;Laerm;28988;48.042;7.584;2023-08-08T02:42:10;98.23;-18.93;103.78;;
43385;Laerm;28988;48.042;7.584;2023-08-08T02:44:35;98.64;-42.77;103.84;;
43385;Laerm;28988;48.042;7.584;2023-08-08T02:47:00;98.67;-25.09;103.62;;
43385;Laerm;28988;48.042;7.584;2023-08-08T02:49:25;98.17;-14.10;103.58;;
43385;Laerm;28988;48.042;7.584;2023-08-08T02:51:50;97.83;-20.22;103.30;;
43385;Laerm;28988;48.042;7.584;2023-08-08T02:54:16;97.65;-35.01;103.07;;
43385;Laerm;28988;48.042;7.584;2023-08-08T02:56:41;97.54;-26.78;102.77;;
43385;Laerm;28988;48.042;7.584;2023-08-08T02:59:06;97.34;-22.68;102.82;;
43385;Laerm;28988;48.042;7.584;2023-08-08T03:01:31;96.97;-25.34;102.36;;
43385;Laerm;28988;48.042;7.584;2023-08-08T03:03:56;96.61;-36.99;102.29;;
43385;Laerm;28988;48.042;7.584;2023-08-08T03:06:21;96.02;-21.42;102.04;;
43385;Laerm;28988;48.042;7.584;2023-08-08T03:08:47;95.82;-22.97;101.89;;
43385;Laerm;28988;48.042;7.584;2023-08-08T03:11:12;95.73;-20.26;101.76;;
43385;Laerm;28988;48.042;7.584;2023-08-08T03:13:37;95.45;-20.93;101.73;;
43385;Laerm;28988;48.042;7.584;2023-08-08T03:16:02;95.10;-27.03;101.58;;
43385;Laerm;28988;48.042;7.584;2023-08-08T03:18:27;94.69;-27.42;101.48;;
43385;Laerm;28988;48.042;7.584;2023-08-08T03:20:52;94.10;-35.11;101.22;;
43385;Laerm;28988;48.042;7.584;2023-08-08T03:23:18;93.24;-11.49;100.94;;
43385;Laerm;28988;48.042;7.584;2023-08-08T03:25:43;92.92;-25.25;100.94;;
43385;Laerm;28988;48.042;7.584;2023-08-08T03:28:08;92.37;-40.91;100.88;;
43385;Laerm;28988;48.042;7.584;2023-08-08T03:30:35;91.94;-18.44;100.70;;
43385;Laerm;28988;48.042;7.584;2023-08-08T03:33:00;91.66;-20.64;100.24;;
43385;Laerm;28988;48.042;7.584;2023-08-08T03:35:26;91.35;-27.88;100.24;;
43385;Laerm;28988;48.042;7.584;2023-08-08T03:37:52;91.26;-36.08;100.08;;
43385;Laerm;28988;48.042;7.584;2023-08-08T03:40:17;91.12;-28.42;100.04;;
43385;Laerm;28988;48.042;7.584;2023-08-08T03:42:42;90.98;-21.17;100.02;;
43385;Laerm;28988;48.042;7.584;2023-08-08T03:45:08;90.91;-17.32;99.90;;
43385;Laerm;28988;48.042;7.584;2023-08-08T03:47:33;90.81;-19.74;100.02;;
43385;Laerm;28988;48.042;7.584;2023-08-08T03:49:58;90.73;-26.36;99.76;;
43385;Laerm;28988;48.042;7.584;2023-08-08T03:52:24;90.64;-35.25;99.59;;
43385;Laerm;28988;48.042;7.584;2023-08-08T03:54:49;90.63;-30.61;99.70;;
43385;Laerm;28988;48.042;7.584;2023-08-08T03:57:14;90.64;-18.22;99.90;;
43385;Laerm;28988;48.042;7.584;2023-08-08T03:59:39;90.54;-58.67;99.50;;
43385;Laerm;28988;48.042;7.584;2023-08-08T04:02:04;90.47;-33.73;99.82;;
43385;Laerm;28988;48.042;7.584;2023-08-08T04:04:30;90.43;-22.34;99.39;;
43385;Laerm;28988;48.042;7.584;2023-08-08T04:06:55;90.40;-19.85;99.42;;
43385;Laerm;28988;48.042;7.584;2023-08-08T04:09:20;90.37;-18.00;99.46;;
43385;Laerm;28988;48.042;7.584;2023-08-08T04:11:45;90.37;-22.53;99.34;;
43385;Laerm;28988;48.042;7.584;2023-08-08T04:14:11;90.42;-18.15;99.48;;
43385;Laerm;28988;48.042;7.584;2023-08-08T04:16:36;90.49;-27.19;99.68;;
43385;Laerm;28988;48.042;7.584;2023-08-08T04:19:01;90.53;-16.46;99.56;;
43385;Laerm;28988;48.042;7.584;2023-08-08T04:21:28;90.52;-18.01;99.64;;
43385;Laerm;28988;48.042;7.584;2023-08-08T04:23:53;90.48;-29.68;99.53;;
43385;Laerm;28988;48.042;7.584;2023-08-08T04:26:19;90.52;-24.86;99.50;;
43385;Laerm;28988;48.042;7.584;2023-08-08T04:28:44;90.59;-30.44;99.76;;
43385;Laerm;28988;48.042;7.584;2023-08-08T04:31:09;90.58;-16.44;99.74;;
43385;Laerm;28988;48.042;7.584;2023-08-08T04:33:34;90.64;-25.70;100.00;;
43385;Laerm;28988;48.042;7.584;2023-08-08T04:35:59;90.74;-34.07;99.75;;
43385;Laerm;28988;48.042;7.584;2023-08-08T04:38:25;90.84;-23.73;99.76;;
43385;Laerm;28988;48.042;7.584;2023-08-08T04:40:50;90.94;-29.93;100.08;;
43385;Laerm;28988;48.042;7.584;2023-08-08T04:43:15;91.06;-18.26;100.16;;
43385;Laerm;28988;48.042;7.584;2023-08-08T04:45:40;91.31;-81.88;100.17;;
43385;Laerm;28988;48.042;7.584;2023-08-08T04:48:05;91.47;-26.62;99.97;;
43385;Laerm;28988;48.042;7.584;2023-08-08T04:50:30;91.44;-22.47;100.37;;
43385;Laerm;28988;48.042;7.584;2023-08-08T04:52:56;91.47;-32.12;100.41;;
43385;Laerm;28988;48.042;7.584;2023-08-08T04:55:21;91.49;-27.10;100.37;;
43385;Laerm;28988;48.042;7.584;2023-08-08T04:57:46;91.46;-27.92;100.34;;
43385;Laerm;28988;48.042;7.584;2023-08-08T05:00:11;91.33;-30.43;100.52;;
43385;Laerm;28988;48.042;7.584;2023-08-08T05:02:37;91.30;-40.66;100.27;;
43385;Laerm;28988;48.042;7.584;2023-08-08T05:05:04;91.41;-36.34;100.16;;
43385;Laerm;28988;48.042;7.584;2023-08-08T05:07:29;91.60;-25.81;100.17;;
43385;Laerm;28988;48.042;7.584;2023-08-08T05:09:54;92.03;-23.71;100.59;;
43385;Laerm;28988;48.042;7.584;2023-08-08T05:12:20;92.50;-33.51;100.96;;
43385;Laerm;28988;48.042;7.584;2023-08-08T05:14:45;92.91;-32.30;100.79;;
43385;Laerm;28988;48.042;7.584;2023-08-08T05:17:10;93.16;-14.86;100.74;;
43385;Laerm;28988;48.042;7.584;2023-08-08T05:19:35;93.68;-33.11;101.09;;
43385;Laerm;28988;48.042;7.584;2023-08-08T05:22:00;94.61;-54.31;101.25;;
43385;Laerm;28988;48.042;7.584;2023-08-08T05:24:26;95.96;-28.25;102.25;;
43385;Laerm;28988;48.042;7.584;2023-08-08T05:26:51;97.21;-19.44;102.90;;
43385;Laerm;28988;48.042;7.584;2023-08-08T05:29:16;98.19;-24.43;103.08;;
43385;Laerm;28988;48.042;7.584;2023-08-08T05:31:41;98.92;-21.23;104.12;;
43385;Laerm;28988;48.042;7.584;2023-08-08T05:34:06;100.32;-21.58;104.70;;
43385;Laerm;28988;48.042;7.584;2023-08-08T05:36:32;101.01;-37.30;104.88;;
43385;Laerm;28988;48.042;7.584;2023-08-08T05:38:57;100.99;-18.53;105.22;;
43385;Laerm;28988;48.042;7.584;2023-08-08T05:41:23;100.33;-61.99;105.59;;
43385;Laerm;28988;48.042;7.584;2023-08-08T05:43:48;99.65;-35.51;105.24;;
43385;Laerm;28988;48.042;7.584;2023-08-08T05:46:13;98.95;-40.86;105.11;;
43385;Laerm;28988;48.042;7.584;2023-08-08T05:48:38;98.16;-42.52;104.58;;
43385;Laerm;28988;48.042;7.584;2023-08-08T05:51:03;97.35;-29.43;105.30;;
43385;Laerm;28988;48.042;7.584;2023-08-08T05:53:30;95.97;-28.79;104.73;;
43385;Laerm;28988;48.042;7.584;2023-08-08T05:55:55;94.79;-67.25;104.58;;
43385;Laerm;28988;48.042;7.584;2023-08-08T05:58:20;93.58;-31.22;102.84;;
43385;Laerm;28988;48.042;7.584;2023-08-08T06:00:46;92.94;-25.56;103.24;;
43385;Laerm;28988;48.042;7.584;2023-08-08T06:03:11;92.52;-38.90;104.52;;
43385;Laerm;28988;48.042;7.584;2023-08-08T06:05:36;91.93;-29.38;102.71;;
43385;Laerm;28988;48.042;7.584;2023-08-08T06:08:02;91.32;-28.52;102.65;;
43385;Laerm;28988;48.042;7.584;2023-08-08T06:10:29;90.85;-20.20;102.07;;
43385;Laerm;28988;48.042;7.584;2023-08-08T06:12:54;90.57;-23.30;103.17;;
43385;Laerm;28988;48.042;7.584;2023-08-08T06:15:19;90.12;-42.01;101.67;;
43385;Laerm;28988;48.042;7.584;2023-08-08T06:17:44;89.45;-36.94;100.53;;
43385;Laerm;28988;48.042;7.584;2023-08-08T06:20:09;88.56;-50.86;100.08;;
43385;Laerm;28988;48.042;7.584;2023-08-08T06:22:36;88.19;-28.77;101.70;;
43385;Laerm;28988;48.042;7.584;2023-08-08T06:25:01;87.83;-34.88;99.92;;
43385;Laerm;28988;48.042;7.584;2023-08-08T06:27:26;87.52;-31.23;99.00;;
43385;Laerm;28988;48.042;7.584;2023-08-08T06:29:51;87.11;-26.80;98.47;;
43385;Laerm;28988;48.042;7.584;2023-08-08T06:32:17;86.92;-29.07;99.75;;
43385;Laerm;28988;48.042;7.584;2023-08-08T06:34:42;86.48;-59.49;99.64;;
43385;Laerm;28988;48.042;7.584;2023-08-08T06:37:07;86.22;-38.06;98.64;;
43385;Laerm;28988;48.042;7.584;2023-08-08T06:39:32;85.66;-32.18;97.53;;
43385;Laerm;28988;48.042;7.584;2023-08-08T06:41:57;85.20;-34.33;97.47;;
43385;Laerm;28988;48.042;7.584;2023-08-08T06:44:22;84.83;-48.19;96.36;;
43385;Laerm;28988;48.042;7.584;2023-08-08T06:46:48;84.57;-49.01;96.38;;
43385;Laerm;28988;48.042;7.584;2023-08-08T06:49:13;84.42;-57.68;95.44;;
43385;Laerm;28988;48.042;7.584;2023-08-08T06:51:38;84.40;-23.73;95.76;;
43385;Laerm;28988;48.042;7.584;2023-08-08T06:54:03;84.36;-37.15;96.07;;
43385;Laerm;28988;48.042;7.584;2023-08-08T06:56:29;84.38;-28.29;95.91;;
43385;Laerm;28988;48.042;7.584;2023-08-08T06:58:54;84.35;-41.54;95.66;;
43385;Laerm;28988;48.042;7.584;2023-08-08T07:01:19;84.35;-23.73;95.14;;
43385;Laerm;28988;48.042;7.584;2023-08-08T07:03:44;84.35;-51.48;96.05;;
43385;Laerm;28988;48.042;7.584;2023-08-08T07:06:10;84.34;-37.35;95.66;;
43385;Laerm;28988;48.042;7.584;2023-08-08T07:08:35;84.34;-23.97;95.75;;
43385;Laerm;28988;48.042;7.584;2023-08-08T07:11:00;84.33;-26.87;95.82;;
43385;Laerm;28988;48.042;7.584;2023-08-08T07:13:25;84.32;-31.18;95.27;;
43385;Laerm;28988;48.042;7.584;2023-08-08T07:15:50;84.32;-23.73;95.67;;
43385;Laerm;28988;48.042;7.584;2023-08-08T07:18:16;84.33;-57.68;95.20;;
43385;Laerm;28988;48.042;7.584;2023-08-08T07:20:41;84.32;-22.86;95.69;;
43385;Laerm;28988;48.042;7.584;2023-08-08T07:23:06;84.32;-34.16;94.98;;
43385;Laerm;28988;48.042;7.584;2023-08-08T07:25:31;84.31;-28.29;96.05;;
43385;Laerm;28988;48.042;7.584;2023-08-08T07:27:57;84.32;-26.87;94.83;;
43385;Laerm;28988;48.042;7.584;2023-08-08T07:30:22;84.33;-52.22;95.59;;
43385;Laerm;28988;48.042;7.584;2023-08-08T07:32:48;84.30;-57.68;95.27;;
43385;Laerm;28988;48.042;7.584;2023-08-08T07:35:14;84.30;-23.73;95.46;;
43385;Laerm;28988;48.042;7.584;2023-08-08T07:37:40;84.29;-57.68;94.77;;
43385;Laerm;28988;48.042;7.584;2023-08-08T07:40:15;84.30;-20.54;95.82;;
43385;Laerm;28988;48.042;7.584;2023-08-08T07:42:40;84.26;-33.10;95.38;;
43385;Laerm;28988;48.042;7.584;2023-08-08T07:45:05;84.26;-57.68;94.93;;
43385;Laerm;28988;48.042;7.584;2023-08-08T07:47:31;84.29;-23.73;95.06;;
43385;Laerm;28988;48.042;7.584;2023-08-08T07:49:56;84.28;-23.73;94.81;;
43385;Laerm;28988;48.042;7.584;2023-08-08T07:52:21;84.28;-24.67;94.83;;
43385;Laerm;28988;48.042;7.584;2023-08-08T07:54:48;84.26;-57.68;94.74;;
43385;Laerm;28988;48.042;7.584;2023-08-08T07:57:13;84.27;-22.58;94.60;;
43385;Laerm;28988;48.042;7.584;2023-08-08T07:59:38;84.28;-23.73;94.40;;
43385;Laerm;28988;48.042;7.584;2023-08-08T08:02:04;84.27;-23.73;94.89;;
43385;Laerm;28988;48.042;7.584;2023-08-08T08:04:30;84.28;-46.48;95.57;;
43385;Laerm;28988;48.042;7.584;2023-08-08T08:06:55;84.28;-28.29;95.13;;
43385;Laerm;28988;48.042;7.584;2023-08-08T08:09:20;84.25;-23.73;94.81;;
43385;Laerm;28988;48.042;7.584;2023-08-08T08:11:45;84.25;-57.68;94.93;;
43385;Laerm;28988;48.042;7.584;2023-08-08T08:14:10;84.26;-23.73;95.02;;
43385;Laerm;28988;48.042;7.584;2023-08-08T08:16:35;84.24;-57.68;94.77;;
43385;Laerm;28988;48.042;7.584;2023-08-08T08:19:01;84.23;-24.41;94.63;;
43385;Laerm;28988;48.042;7.584;2023-08-08T08:21:26;84.24;-23.73;95.28;;
43385;Laerm;28988;48.042;7.584;2023-08-08T08:23:51;84.24;-28.29;94.43;;
43385;Laerm;28988;48.042;7.584;2023-08-08T08:26:17;84.22;-28.29;94.42;;
43385;Laerm;28988;48.042;7.584;2023-08-08T08:28:42;84.21;-31.94;94.37;;
43385;Laerm;28988;48.042;7.584;2023-08-08T08:31:07;84.21;-57.68;94.28;;
43385;Laerm;28988;48.042;7.584;2023-08-08T08:33:33;84.21;-28.29;94.29;;
43385;Laerm;28988;48.042;7.584;2023-08-08T08:35:58;84.21;-57.68;94.58;;
43385;Laerm;28988;48.042;7.584;2023-08-08T08:38:23;84.20;-23.73;94.01;;
43385;Laerm;28988;48.042;7.584;2023-08-08T08:40:48;84.20;-57.68;94.40;;
43385;Laerm;28988;48.042;7.584;2023-08-08T08:43:13;84.19;-28.29;93.85;;
43385;Laerm;28988;48.042;7.584;2023-08-08T08:45:40;84.19;-57.68;94.51;;
43385;Laerm;28988;48.042;7.584;2023-08-08T08:48:08;84.17;-57.68;93.51;;
43385;Laerm;28988;48.042;7.584;2023-08-08T08:50:35;84.17;-57.68;93.85;;
43385;Laerm;28988;48.042;7.584;2023-08-08T08:53:01;84.18;-26.53;94.14;;
43385;Laerm;28988;48.042;7.584;2023-08-08T08:55:26;84.18;-26.87;93.98;;
43385;Laerm;28988;48.042;7.584;2023-08-08T08:57:52;84.17;-57.68;94.10;;
43385;Laerm;28988;48.042;7.584;2023-08-08T09:00:17;84.17;-57.68;93.80;;
43385;Laerm;28988;48.042;7.584;2023-08-08T09:02:43;84.16;-57.68;93.52;;
43385;Laerm;28988;48.042;7.584;2023-08-08T09:05:08;84.15;-57.68;93.18;;
43385;Laerm;28988;48.042;7.584;2023-08-08T09:07:34;84.16;-57.68;93.85;;
43385;Laerm;28988;48.042;7.584;2023-08-08T09:12:42;84.14;-34.16;93.65;;
43385;Laerm;28988;48.042;7.584;2023-08-08T09:15:07;84.14;-57.68;93.31;;
43385;Laerm;28988;48.042;7.584;2023-08-08T09:17:34;84.14;-57.68;93.70;;
43385;Laerm;28988;48.042;7.584;2023-08-08T09:19:59;84.14;-33.10;93.27;;
43385;Laerm;28988;48.042;7.584;2023-08-08T09:22:24;84.15;-33.10;93.31;;
43385;Laerm;28988;48.042;7.584;2023-08-08T09:24:51;84.14;-57.68;93.15;;
43385;Laerm;28988;48.042;7.584;2023-08-08T09:27:16;84.14;-57.68;93.44;;
43385;Laerm;28988;48.042;7.584;2023-08-08T09:29:42;84.14;-57.68;93.80;;
43385;Laerm;28988;48.042;7.584;2023-08-08T09:32:08;84.15;-57.68;93.56;;
43385;Laerm;28988;48.042;7.584;2023-08-08T09:34:33;84.14;-33.10;93.08;;
43385;Laerm;28988;48.042;7.584;2023-08-08T09:36:58;84.14;-57.68;93.08;;
43385;Laerm;28988;48.042;7.584;2023-08-08T11:27:47;84.16;-34.16;93.34;;
43385;Laerm;28988;48.042;7.584;2023-08-08T11:30:13;84.15;-23.73;93.76;;
43385;Laerm;28988;48.042;7.584;2023-08-08T11:32:38;84.16;-28.29;93.84;;
43385;Laerm;28988;48.042;7.584;2023-08-08T11:35:03;84.15;-37.92;93.86;;
43385;Laerm;28988;48.042;7.584;2023-08-08T11:37:29;84.15;-22.68;93.78;;
43385;Laerm;28988;48.042;7.584;2023-08-08T11:39:54;84.15;-34.16;93.04;;
43385;Laerm;28988;48.042;7.584;2023-08-08T11:42:19;84.15;-57.68;93.26;;
43385;Laerm;28988;48.042;7.584;2023-08-08T11:44:47;84.15;-23.73;93.22;;
43385;Laerm;28988;48.042;7.584;2023-08-08T11:47:13;84.14;-33.10;93.35;;
43385;Laerm;28988;48.042;7.584;2023-08-08T11:49:39;84.15;-57.68;93.53;;
43385;Laerm;28988;48.042;7.584;2023-08-08T11:52:06;84.14;-33.10;93.23;;
43385;Laerm;28988;48.042;7.584;2023-08-08T11:54:31;84.14;-23.58;93.08;;
43385;Laerm;28988;48.042;7.584;2023-08-08T11:56:56;84.14;-57.68;93.60;;
43385;Laerm;28988;48.042;7.584;2023-08-08T11:59:21;84.14;-38.42;93.44;;
43385;Laerm;28988;48.042;7.584;2023-08-08T12:01:49;84.14;-57.68;92.93;;
43385;Laerm;28988;48.042;7.584;2023-08-08T12:04:14;84.15;-33.10;93.64;;
43385;Laerm;28988;48.042;7.584;2023-08-08T12:06:40;84.15;-33.10;93.54;;
43385;Laerm;28988;48.042;7.584;2023-08-08T12:09:07;84.15;-57.68;93.52;;
43385;Laerm;28988;48.042;7.584;2023-08-08T12:11:35;84.15;-57.68;92.99;;
43385;Laerm;28988;48.042;7.584;2023-08-08T12:14:02;84.15;-57.68;93.53;;
43385;Laerm;28988;48.042;7.584;2023-08-08T12:16:28;84.17;-57.68;95.05;;
43385;Laerm;28988;48.042;7.584;2023-08-08T12:18:55;84.16;-57.68;93.52;;
43385;Laerm;28988;48.042;7.584;2023-08-08T12:21:20;84.16;-57.68;93.87;;
43385;Laerm;28988;48.042;7.584;2023-08-08T12:23:45;84.16;-28.29;93.82;;
43385;Laerm;28988;48.042;7.584;2023-08-08T12:26:11;84.16;-57.68;93.52;;
43385;Laerm;28988;48.042;7.584;2023-08-08T12:28:36;84.16;-33.10;93.53;;
43385;Laerm;28988;48.042;7.584;2023-08-08T12:31:01;84.17;-33.10;93.48;;
43385;Laerm;28988;48.042;7.584;2023-08-08T12:33:26;84.17;-23.73;94.71;;
43385;Laerm;28988;48.042;7.584;2023-08-08T12:35:52;84.17;-23.73;93.74;;
43385;Laerm;28988;48.042;7.584;2023-08-08T12:38:17;84.17;-38.42;93.65;;
43385;Laerm;28988;48.042;7.584;2023-08-08T12:40:43;84.17;-57.68;93.34;;
43385;Laerm;28988;48.042;7.584;2023-08-08T12:43:09;84.16;-23.73;93.68;;
43385;Laerm;28988;48.042;7.584;2023-08-08T12:45:36;84.17;-57.68;93.86;;
43385;Laerm;28988;48.042;7.584;2023-08-08T12:48:01;84.17;-23.73;93.89;;
43385;Laerm;28988;48.042;7.584;2023-08-08T12:50:26;84.15;-57.68;93.31;;
43385;Laerm;28988;48.042;7.584;2023-08-08T12:52:53;84.16;-57.68;93.36;;
43385;Laerm;28988;48.042;7.584;2023-08-08T12:55:18;84.15;-23.73;94.01;;
43385;Laerm;28988;48.042;7.584;2023-08-08T12:57:44;84.17;-57.68;93.66;;
43385;Laerm;28988;48.042;7.584;2023-08-08T13:00:10;84.15;-34.16;93.49;;
43385;Laerm;28988;48.042;7.584;2023-08-08T13:02:35;84.16;-33.10;93.36;;
43385;Laerm;28988;48.042;7.584;2023-08-08T13:05:00;84.15;-57.68;93.74;;
43385;Laerm;28988;48.042;7.584;2023-08-08T13:07:28;84.16;-33.10;93.82;;
43385;Laerm;28988;48.042;7.584;2023-08-08T13:09:53;84.16;-57.68;93.47;;
43385;Laerm;28988;48.042;7.584;2023-08-08T13:12:18;84.16;-28.29;93.83;;
43385;Laerm;28988;48.042;7.584;2023-08-08T13:14:43;84.16;-47.82;93.88;;
43385;Laerm;28988;48.042;7.584;2023-08-08T13:17:08;84.17;-57.68;93.45;;
43385;Laerm;28988;48.042;7.584;2023-08-08T13:19:34;84.16;-57.68;93.70;;
43385;Laerm;28988;48.042;7.584;2023-08-08T13:21:59;84.18;-57.68;93.86;;
43385;Laerm;28988;48.042;7.584;2023-08-08T13:24:25;84.17;-57.68;93.96;;
43385;Laerm;28988;48.042;7.584;2023-08-08T13:26:50;84.17;-23.73;93.69;;
43385;Laerm;28988;48.042;7.584;2023-08-08T13:29:15;84.17;-57.68;93.53;;
43385;Laerm;28988;48.042;7.584;2023-08-08T13:31:40;84.15;-28.29;93.17;;
43385;Laerm;28988;48.042;7.584;2023-08-08T13:34:06;84.14;-57.68;93.49;;
43385;Laerm;28988;48.042;7.584;2023-08-08T13:36:31;84.14;-33.10;92.94;;
43385;Laerm;28988;48.042;7.584;2023-08-08T13:38:56;84.24;-38.42;93.32;;
43385;Laerm;28988;48.042;7.584;2023-08-08T13:41:21;86.89;-25.99;96.60;;
43385;Laerm;28988;48.042;7.584;2023-08-08T13:43:46;93.42;-43.56;99.40;;
43385;Laerm;28988;48.042;7.584;2023-08-08T13:46:12;86.15;-28.33;97.30;;
43385;Laerm;28988;48.042;7.584;2023-08-08T13:48:37;89.51;-34.97;98.76;;
43385;Laerm;28988;48.042;7.584;2023-08-08T13:51:02;94.48;-34.60;99.42;;
43385;Laerm;28988;48.042;7.584;2023-08-08T13:53:28;88.85;-38.41;97.81;;
43385;Laerm;28988;48.042;7.584;2023-08-08T13:55:53;84.63;-31.77;94.59;;
43385;Laerm;28988;48.042;7.584;2023-08-08T13:58:18;84.21;-36.13;93.04;;
43385;Laerm;28988;48.042;7.584;2023-08-08T14:03:22;84.14;-57.68;93.36;;
43385;Laerm;28988;48.042;7.584;2023-08-08T14:05:47;84.14;-33.10;93.53;;
43385;Laerm;28988;48.042;7.584;2023-08-08T14:08:13;84.14;-57.68;92.91;;
43385;Laerm;28988;48.042;7.584;2023-08-08T14:10:38;84.14;-33.10;93.31;;
43385;Laerm;28988;48.042;7.584;2023-08-08T14:13:03;84.15;-23.73;93.23;;
43385;Laerm;28988;48.042;7.584;2023-08-08T14:15:28;84.15;-57.68;93.27;;
43385;Laerm;28988;48.042;7.584;2023-08-08T14:17:54;84.14;-38.42;93.51;;
43385;Laerm;28988;48.042;7.584;2023-08-08T14:20:19;84.15;-23.73;93.45;;
43385;Laerm;28988;48.042;7.584;2023-08-08T14:22:45;84.15;-57.68;93.03;;
43385;Laerm;28988;48.042;7.584;2023-08-08T14:25:13;84.16;-57.68;93.87;;
43385;Laerm;28988;48.042;7.584;2023-08-08T14:27:38;84.14;-33.10;93.60;;
43385;Laerm;28988;48.042;7.584;2023-08-08T14:30:04;84.15;-34.16;93.36;;
43385;Laerm;28988;48.042;7.584;2023-08-08T14:32:29;84.14;-57.68;93.39;;
43385;Laerm;28988;48.042;7.584;2023-08-08T14:34:54;84.15;-57.68;93.43;;
43385;Laerm;28988;48.042;7.584;2023-08-08T14:37:20;84.14;-22.63;92.99;;
43385;Laerm;28988;48.042;7.584;2023-08-08T14:39:46;84.13;-57.68;93.34;;
43385;Laerm;28988;48.042;7.584;2023-08-08T14:42:11;84.14;-57.68;93.18;;
43385;Laerm;28988;48.042;7.584;2023-08-08T14:44:36;84.15;-33.10;93.18;;
43385;Laerm;28988;48.042;7.584;2023-08-08T14:47:01;84.14;-34.16;93.27;;
43385;Laerm;28988;48.042;7.584;2023-08-08T14:49:27;84.15;-34.98;93.17;;
43385;Laerm;28988;48.042;7.584;2023-08-08T14:51:52;84.14;-29.33;92.99;;
43385;Laerm;28988;48.042;7.584;2023-08-08T14:54:18;84.14;-57.68;93.08;;
43385;Laerm;28988;48.042;7.584;2023-08-08T14:56:43;84.14;-33.10;93.48;;
43385;Laerm;28988;48.042;7.584;2023-08-08T14:59:08;84.15;-57.68;93.42;;
43385;Laerm;28988;48.042;7.584;2023-08-08T15:01:33;84.15;-28.29;93.31;;
43385;Laerm;28988;48.042;7.584;2023-08-08T15:03:59;84.14;-57.68;93.36;;
43385;Laerm;28988;48.042;7.584;2023-08-08T15:06:24;84.14;-34.16;93.69;;
43385;Laerm;28988;48.042;7.584;2023-08-08T15:08:49;84.14;-57.68;93.40;;
43385;Laerm;28988;48.042;7.584;2023-08-08T15:11:15;84.21;-52.22;93.12;;